Terminal Aerodrome Forecast
Issued by NWS

Home | Current Version | Previous Version | Graphics & Text | Print | Product List | Glossary On
Versions: 1 2 3 4 5 6 7 8 9 10 11 12
000
FTUS43 KTOP 210520
TAFFOE
TAF
KFOE 210520Z 2106/2206 05008KT P6SM SCT100
     FM211500 06013G21KT P6SM VCSH OVC100
     FM220200 06013G22KT 6SM SHRA SCT025 OVC050=

USA.gov is the U.S. government's official web portal to all federal, state and local government web resources and services.